Oakville, Washington
Current Conditions -  °F | °C
As of 9:15 PM on Friday 24 Oct 2014 (Local Time) from KCLS Reporting Station
Light Rain Light Rain  
Wind Chill: 52°   Ceiling: 2800
Heat Index: 52°   Visibility: 6mi
Dew Point: 52°   Wind: 9mph
Humidity: 100%   Direction: 20°NNE
Pressure: 29.78"   Gusts: NA
Location:  46.84°N, 123.23°W
Report Text: KCLS 250415Z AUTO 02008KT 6SM -RA FEW010 SCT020 BKN028 11/11 A2978 RMK AO2
Loading
Personal Weather Stations






























Interactive Weather Map
Tropical Storm Tracking
New forecast layout! Learn more

10-Day Weather Forecast

Advertisements
Track Severe Weather on mobile